• Join FlightAware (Why Join?)
  • Login
  • US Flag 
01:26AM EDT


 

Airport Tracker/Info


-or-


 

Live Flight TrackerFlight Track Log ✈ EJA922 ✈ 11-Jan-2014 ✈ KAPF - KSNA

Flight Track Log - Related Links

Times and Time Zones

All times are in EST time to prevent confusion due to time zone crossing. See the EJA922 flight status page for this flight to view local times or setup timezone preferences in your user account.

Time Position Orientation Groundspeed Altitude Reporting Facility
EST Latitude Longitude Course Direction KTS MPH feet Rate Location/Type
09:52AM 26.1675 -81.9419 299° West 279 321 7,900  Level Miami Center
09:53AM 26.1978 -82.0311 291° West 293 337 11,200 3,180 Climbing Miami Center
09:54AM 26.2131 -82.1289 280° West 313 360 14,300 3,180 Climbing Miami Center
09:55AM 26.2258 -82.2336 278° West 331 381 17,600 2,640 Climbing Miami Center
09:56AM 26.4293 -82.5340 299° West  Level Estimated
09:56AM 26.2431 -82.3364 281° West 337 388 19,600  Level Miami Center
09:57AM 26.2744 -82.4394 289° West 337 388 21,300 1,680 Climbing Miami Center
09:58AM 26.3061 -82.5383 290° West 348 400 23,000 1,680 Climbing Miami Center
09:59AM 26.3417 -82.6467 290° West 354 407 24,700 1,500 Climbing Miami Center
10:00AM 26.3792 -82.7528 292° West 361 415 26,100 1,440 Climbing Miami Center
10:01AM 26.4164 -82.8611 291° West 366 421 27,600 1,440 Climbing Miami Center
10:02AM 26.4536 -82.9672 291° West 372 428 29,000 1,200 Climbing Miami Center
10:03AM 26.4925 -83.0853 290° West 384 442 30,000 960 Climbing Miami Center
10:04AM 26.5353 -83.2058 292° West 404 465 31,000 1,080 Climbing Miami Center
10:05AM 26.5758 -83.3264 291° West 416 479 32,200 1,200 Climbing Miami Center
10:06AM 26.6164 -83.4494 290° West 421 484 33,500 1,680 Climbing Miami Center
10:07AM 26.6586 -83.5703 291° West 421 484 35,600 1,800 Climbing Miami Center
10:08AM 26.6969 -83.6908 290° West 416 479 37,100 1,200 Climbing Miami Center
10:09AM 26.7436 -83.8028 295° West 411 473 38,000 420 Climbing Miami Center
10:10AM 26.8006 -83.9247 298° West 416 479 38,000  Level Miami Center
10:11AM 26.8569 -84.0467 297° West 428 493 38,000  Level Miami Center
10:12AM 26.9078 -84.1592 297° West 443 510 38,000  Level Miami Center
10:13AM 26.9661 -84.2836 298° West 454 522 38,000  Level Miami Center
10:14AM 27.0219 -84.4131 296° West 461 531 38,000  Level Miami Center
10:15AM 27.0817 -84.5428 297° West 466 536 38,000  Level Miami Center
10:16AM 27.1417 -84.6678 298° West 466 536 38,000  Level Miami Center
10:17AM 27.2014 -84.7956 298° West 460 529 38,100 240 Climbing Miami Center
10:18AM 27.2508 -84.9225 294° West 460 529 38,500 600 Climbing Miami Center
10:22AM 27.3053 -85.4278 277° West 415 478 41,200 660 Climbing Jacksonville Center
10:23AM 27.3486 -85.5550 291° West 424 488 41,900 600 Climbing Jacksonville Center
10:24AM 27.4089 -85.6569 304° West 441 507 42,500 540 Climbing Jacksonville Center
10:25AM 27.4669 -85.7756 299° West 443 510 43,000 240 Climbing Jacksonville Center
10:26AM 27.5267 -85.8919 300° West 434 499 43,000  Level Jacksonville Center
10:27AM 27.5844 -86.0083 299° West 434 499 43,000  Level Jacksonville Center
10:28AM 27.6481 -86.1319 300° West 440 506 43,000 -60 Level Jacksonville Center
10:29AM 27.7056 -86.2508 299° West 445 512 42,900  Descending Jacksonville Center
10:30AM 27.7689 -86.3842 298° West 452 520 43,000  Climbing Jacksonville Center
10:31AM 27.8261 -86.4989 299° West 452 520 43,000  Level Jacksonville Center
10:32AM 27.8856 -86.6136 300° West 441 507 43,000  Level Jacksonville Center
10:33AM 27.9464 -86.7428 298° West 446 513 43,000  Level Jacksonville Center
10:34AM 28.0014 -86.8575 299° West 434 499 43,000 -60 Level Jacksonville Center
10:35AM 28.0369 -86.9858 287° West 428 493 42,900  Descending Jacksonville Center
10:36AM 28.0433 -87.1131 273° West 411 473 43,000  Climbing Jacksonville Center
10:37AM 28.0492 -87.2450 273° West 411 473 43,000  Level Jacksonville Center
10:38AM 28.0592 -87.3769 275° West 417 480 43,000  Level Jacksonville Center
10:39AM 28.0600 -87.4633 271° West 410 472 43,000  Level Houston Center
10:40AM 28.0825 -87.5919 281° West 418 481 43,000  Level Houston Center
10:41AM 28.1181 -87.7203 287° West 424 488 43,000  Level Houston Center
10:42AM 28.1531 -87.8489 287° West 426 490 43,000  Level Houston Center
10:43AM 28.1894 -87.9769 288° West 427 491 43,000  Level Houston Center
10:44AM 28.2303 -88.1222 288° West 429 494 43,000  Level Houston Center
10:45AM 28.2653 -88.2506 287° West 427 491 43,000  Level Houston Center
10:46AM 28.2944 -88.3786 285° West 423 487 43,000  Level Houston Center
10:47AM 28.3203 -88.5058 283° West 417 480 43,000  Level Houston Center
10:48AM 28.3478 -88.6336 284° West 417 480 43,000  Level Houston Center
10:49AM 28.3792 -88.7864 283° West 414 476 43,000  Level Houston Center
10:50AM 28.4058 -88.9136 283° West 414 476 43,000  Level Houston Center
10:51AM 28.4494 -89.0392 292° West 427 491 43,000  Level Houston Center
10:52AM 28.5269 -89.1494 309° West 448 516 43,000 -60 Level Houston Center
10:53AM 28.5881 -89.2700 300° West 442 509 42,900  Descending Houston Center
10:54AM 28.6497 -89.3892 301° West 438 504 43,000  Climbing Houston Center
10:55AM 28.7106 -89.5089 300° West 438 504 43,000  Level Houston Center
10:56AM 28.7725 -89.6283 301° West 438 504 43,000  Level Houston Center
10:57AM 28.8444 -89.7714 300° West 434 499 43,000  Level Houston Center
10:58AM 28.9047 -89.8889 300° West 431 496 43,000  Level Houston Center
10:59AM 28.9650 -90.0078 300° West 431 496 43,000  Level Houston Center
11:00AM 29.0253 -90.1267 300° West 431 496 43,000  Level Houston Center
11:01AM 29.0850 -90.2447 300° West 429 494 43,000  Level Houston Center
11:02AM 29.1447 -90.3642 300° West 431 496 43,000  Level Houston Center
11:03AM 29.2047 -90.4828 300° West 431 496 43,000 -60 Level Houston Center
11:04AM 29.2647 -90.6036 300° West 433 498 42,900  Descending Houston Center
11:05AM 29.3372 -90.7483 300° West 436 502 43,000  Climbing Houston Center
11:06AM 29.3975 -90.8669 300° West 432 497 43,000  Level Houston Center
11:07AM 29.4558 -90.9853 300° West 427 491 43,000  Level Houston Center
11:08AM 29.5147 -91.1050 299° West 429 494 43,000  Level Houston Center
11:09AM 29.5736 -91.2233 300° West 428 493 43,000  Level Houston Center
11:10AM 29.6325 -91.3428 300° West 429 494 43,000  Level Houston Center
11:11AM 29.6906 -91.4611 299° West 426 490 43,000  Level Houston Center
11:12AM 29.7483 -91.5806 299° West 428 493 43,000  Level Houston Center
11:14AM 29.8203 -91.7250 300° West 429 494 43,000  Level Houston Center
11:15AM 29.8769 -91.8447 299° West 428 493 43,000  Level Houston Center
11:16AM 29.9353 -91.9642 299° West 428 493 43,000  Level Houston Center
11:17AM 29.9925 -92.0806 300° West 421 484 43,000  Level Houston Center
11:18AM 30.0478 -92.1975 299° West 417 480 43,000  Level Houston Center
11:19AM 30.1044 -92.3131 300° West 414 476 43,000  Level Houston Center
11:20AM 30.1600 -92.4297 299° West 415 478 43,000  Level Houston Center
11:21AM 30.2256 -92.5689 299° West 412 474 43,000  Level Houston Center
11:22AM 30.2811 -92.6847 299° West 414 476 43,000  Level Houston Center
11:23AM 30.3372 -92.8019 299° West 418 481 43,000  Level Houston Center
11:24AM 30.3925 -92.9183 299° West 415 478 43,000  Level Houston Center
11:25AM 30.4475 -93.0364 298° West 418 481 43,000  Level Houston Center
11:26AM 30.5139 -93.1758 299° West 417 480 43,000  Level Houston Center
11:27AM 30.5606 -93.2956 294° West 413 475 43,000  Level Houston Center
11:28AM 30.5972 -93.4181 289° West 409 471 43,000  Level Houston Center
11:29AM 30.6375 -93.5389 291° West 406 467 43,000  Level Houston Center
11:30AM 30.6750 -93.6614 290° West 407 468 43,000  Level Houston Center
11:31AM 30.7211 -93.8092 290° West 409 471 43,000  Level Houston Center
11:32AM 30.7608 -93.9328 291° West 409 471 43,000  Level Houston Center
11:33AM 30.7992 -94.0564 290° West 409 471 43,000  Level Houston Center
11:34AM 30.8381 -94.1825 290° West 414 476 43,000  Level Houston Center
11:35AM 30.8811 -94.3258 289° West 413 475 43,000  Level Houston Center
11:36AM 30.9214 -94.4536 290° West 416 479 43,000  Level Houston Center
11:37AM 30.9600 -94.5828 289° West 419 482 43,000  Level Houston Center
11:38AM 30.9997 -94.7133 290° West 422 486 43,000  Level Houston Center
11:39AM 31.0397 -94.8436 290° West 420 483 43,000  Level Houston Center
11:40AM 31.0789 -94.9731 289° West 418 481 43,000  Level Houston Center
11:41AM 31.1175 -95.1019 289° West 416 479 43,000  Level Houston Center
11:42AM 31.1567 -95.2300 290° West 417 480 43,000  Level Houston Center
11:43AM 31.2031 -95.3847 289° West 420 483 43,000  Level Houston Center
11:44AM 31.2417 -95.5153 289° West 423 487 43,000  Level Houston Center
11:46AM 31.2789 -95.6458 288° West 424 488 43,000  Level Houston Center
11:47AM 31.3192 -95.7772 290° West 428 493 43,000  Level Houston Center
11:48AM 31.3572 -95.9103 289° West 431 496 43,000  Level Houston Center
11:49AM 31.3972 -96.0444 289° West 435 501 43,000  Level Houston Center
11:50AM 31.4428 -96.2025 289° West 435 501 43,000  Level Houston Center
11:51AM 31.4822 -96.3369 289° West 434 499 43,000  Level Houston Center
11:52AM 31.5214 -96.4731 289° West 437 503 43,000  Level Houston Center
11:53AM 31.5603 -96.6094 289° West 438 504 43,000  Level Houston Center
11:54AM 31.5997 -96.7453 289° West 438 504 43,000  Level Houston Center
11:55AM 31.6386 -96.8814 289° West 438 504 43,000  Level Houston Center
11:56AM 31.6839 -97.0428 288° West 444 511 43,000  Level Houston Center
11:57AM 31.7225 -97.1794 288° West 441 507 43,000  Level Houston Center
11:57AM 31.7428 -97.2494 289° West 448 516 43,000  Level Fort Worth Center
11:58AM 31.7817 -97.3878 288° West 446 513 43,000  Level Fort Worth Center
11:59AM 31.8200 -97.5247 288° West 442 509 43,000  Level Fort Worth Center
12:01PM 31.8581 -97.6631 288° West 442 509 43,000  Level Fort Worth Center
12:02PM 31.9022 -97.8239 288° West 441 507 43,000  Level Fort Worth Center
12:03PM 31.9400 -97.9611 288° West 439 505 43,000  Level Fort Worth Center
12:04PM 31.9744 -98.0858 288° West 436 502 43,000  Level Fort Worth Center
12:05PM 32.0117 -98.2239 288° West 441 507 43,000  Level Fort Worth Center
12:06PM 32.0561 -98.3875 288° West 438 504 43,000  Level Fort Worth Center
12:07PM 32.0908 -98.5169 288° West 439 505 43,000  Level Fort Worth Center
12:08PM 32.1286 -98.6558 288° West 442 509 43,000  Level Fort Worth Center
12:09PM 32.1647 -98.7936 287° West 441 507 43,000  Level Fort Worth Center
12:10PM 32.2017 -98.9319 288° West 442 509 43,000  Level Fort Worth Center
12:11PM 32.2444 -99.0972 287° West 440 506 43,000  Level Fort Worth Center
12:12PM 32.2817 -99.2353 288° West 440 506 43,000  Level Fort Worth Center
12:13PM 32.3181 -99.3736 287° West 440 506 43,000  Level Fort Worth Center
12:14PM 32.3536 -99.5133 287° West 443 510 43,000  Level Fort Worth Center
12:15PM 32.3892 -99.6528 287° West 441 507 43,000  Level Fort Worth Center
12:16PM 32.4253 -99.7919 287° West 439 505 43,000  Level Fort Worth Center
12:17PM 32.4617 -99.9347 287° West 445 512 43,000  Level Fort Worth Center
12:18PM 32.4981 -100.0769 287° West 445 512 43,000  Level Fort Worth Center
12:19PM 32.5414 -100.2464 287° West 444 511 43,000  Level Fort Worth Center
12:20PM 32.5772 -100.3864 287° West 442 509 43,000  Level Fort Worth Center
12:21PM 32.6128 -100.5264 287° West 442 509 43,000  Level Fort Worth Center
12:22PM 32.6475 -100.6658 287° West 440 506 43,000  Level Fort Worth Center
12:23PM 32.6825 -100.8056 287° West 440 506 43,000  Level Fort Worth Center
12:24PM 32.7164 -100.9453 286° West 441 507 43,000  Level Fort Worth Center
12:25PM 32.7503 -101.0850 286° West 440 506 43,000  Level Fort Worth Center
12:26PM 32.7917 -101.2522 286° West 440 506 43,000  Level Fort Worth Center
12:27PM 32.8253 -101.3914 286° West 438 504 43,000  Level Fort Worth Center
12:28PM 32.8594 -101.5297 286° West 438 504 43,000  Level Fort Worth Center
12:29PM 32.8942 -101.6833 285° West 436 502 43,000  Level Fort Worth Center
12:31PM 32.9278 -101.8225 286° West 438 504 43,000  Level Fort Worth Center
12:32PM 32.9617 -101.9625 286° West 443 510 43,000  Level Fort Worth Center
12:33PM 32.9953 -102.1019 286° West 444 511 43,000  Level Fort Worth Center
12:34PM 33.0275 -102.2422 285° West 445 512 43,000  Level Fort Worth Center
12:35PM 33.0658 -102.4100 285° West 444 511 43,000  Level Fort Worth Center
12:36PM 33.1000 -102.5528 286° West 452 520 43,000  Level Fort Worth Center
12:37PM 33.1328 -102.6967 285° West 454 522 43,000  Level Fort Worth Center
12:38PM 33.1669 -102.8392 286° West 452 520 43,000  Level Fort Worth Center
12:39PM 33.1989 -102.9872 284° West 462 532 43,000  Level Fort Worth Center
12:40PM 33.2308 -103.1369 284° West 468 539 43,000  Level Albuquerque Center
12:41PM 33.2653 -103.2844 286° West 468 539 43,000  Level Albuquerque Center
12:42PM 33.3039 -103.4644 284° West 468 539 43,000  Level Albuquerque Center
12:43PM 33.3364 -103.6125 285° West 465 535 43,000  Level Albuquerque Center
12:44PM 33.3783 -103.7761 287° West 468 539 43,000  Level Albuquerque Center
12:45PM 33.4406 -103.9128 299° West 467 537 43,000  Level Albuquerque Center
12:46PM 33.5172 -104.0558 303° West 474 545 43,000  Level Albuquerque Center
12:47PM 33.5881 -104.1883 303° West 474 545 43,000  Level Albuquerque Center
12:48PM 33.6642 -104.3314 303° West 475 547 43,000  Level Albuquerque Center
12:49PM 33.7353 -104.4661 302° West 479 551 43,000  Level Albuquerque Center
12:50PM 33.8122 -104.6119 302° West 482 555 43,000  Level Albuquerque Center
12:51PM 33.8833 -104.7475 302° West 482 555 43,000  Level Albuquerque Center
12:52PM 33.9600 -104.8958 302° West 485 558 43,000  Level Albuquerque Center
12:53PM 34.0256 -105.0156 303° West 487 560 43,000  Level Albuquerque Center
12:54PM 34.1114 -105.1794 302° West 489 563 43,000  Level Albuquerque Center
12:55PM 34.1836 -105.3197 302° West 487 560 43,000  Level Albuquerque Center
12:56PM 34.2578 -105.4633 302° West 493 567 43,000  Level Albuquerque Center
12:57PM 34.3308 -105.6047 302° West 492 566 43,000  Level Albuquerque Center
12:58PM 34.3658 -105.7606 285° West 485 558 43,000  Level Albuquerque Center
12:59PM 34.3756 -105.9311 274° West 496 571 43,000  Level Albuquerque Center
01:00PM 34.3789 -106.0989 271° West 495 570 43,000  Level Albuquerque Center
01:01PM 34.3836 -106.2611 272° West 496 571 43,000  Level Albuquerque Center
01:02PM 34.3883 -106.4606 272° West 495 570 43,000  Level Albuquerque Center
01:04PM 34.3933 -106.6342 272° West 490 564 43,000  Level Albuquerque Center
01:05PM 34.3958 -106.7981 271° West 488 562 43,000  Level Albuquerque Center
01:06PM 34.4000 -106.9603 272° West 484 557 43,000  Level Albuquerque Center
01:07PM 34.4036 -107.1347 271° West 483 556 43,000  Level Albuquerque Center
01:08PM 34.4033 -107.2769 270° West 479 551 43,000  Level Albuquerque Center
01:09PM 34.4075 -107.4414 272° West 481 554 43,000  Level Albuquerque Center
01:10PM 34.4103 -107.6356 271° West 481 554 43,000  Level Albuquerque Center
01:11PM 34.4117 -107.7961 271° West 478 550 43,000  Level Albuquerque Center
01:12PM 34.4150 -107.9581 271° West 479 551 43,000  Level Albuquerque Center
01:13PM 34.4172 -108.1183 271° West 478 550 43,000  Level Albuquerque Center
01:14PM 34.4192 -108.2797 271° West 479 551 43,000  Level Albuquerque Center
01:15PM 34.4194 -108.4397 270° West 476 548 43,000  Level Albuquerque Center
01:16PM 34.4219 -108.6208 271° West 476 548 43,000  Level Albuquerque Center
01:17PM 34.4225 -108.7744 270° West 475 547 43,000  Level Albuquerque Center
01:18PM 34.4236 -108.9536 270° West 476 548 43,000  Level Albuquerque Center
01:19PM 34.4250 -109.1072 271° West 476 548 43,000  Level Albuquerque Center
01:20PM 34.4189 -109.2886 268° West 479 551 43,000  Level Albuquerque Center
01:21PM 34.4136 -109.4447 268° West 482 555 43,000  Level Albuquerque Center
01:22PM 34.4078 -109.6281 268° West 485 558 43,000  Level Albuquerque Center
01:23PM 34.4036 -109.7839 268° West 484 557 43,000  Level Albuquerque Center
01:24PM 34.4006 -109.9669 269° West 486 559 43,000  Level Albuquerque Center
01:25PM 34.3956 -110.1228 268° West 484 557 43,000  Level Albuquerque Center
01:26PM 34.3903 -110.3033 268° West 482 555 43,000  Level Albuquerque Center
01:27PM 34.3867 -110.4578 268° West 489 563 43,000  Level Albuquerque Center
01:28PM 34.3844 -110.6236 269° West 496 571 43,000  Level Albuquerque Center
01:29PM 34.3753 -110.7833 266° West 485 558 43,000  Level Albuquerque Center
01:30PM 34.3672 -110.9775 267° West 483 556 43,000  Level Albuquerque Center
01:31PM 34.3633 -111.1392 268° West 483 556 43,000  Level Albuquerque Center
01:32PM 34.3572 -111.3025 267° West 487 560 43,000  Level Albuquerque Center
01:34PM 34.3506 -111.4647 267° West 488 562 43,000  Level Albuquerque Center
01:35PM 34.3442 -111.6281 267° West 489 563 43,000  Level Albuquerque Center
01:36PM 34.3367 -111.8222 267° West 490 564 43,000  Level Albuquerque Center
01:37PM 34.3297 -111.9839 267° West 489 563 43,000  Level Albuquerque Center
01:38PM 34.3233 -112.1450 267° West 486 559 43,000  Level Albuquerque Center
01:39PM 34.3161 -112.3047 267° West 483 556 43,000  Level Albuquerque Center
01:40PM 34.3086 -112.4658 267° West 482 555 43,000  Level Albuquerque Center
01:41PM 34.2983 -112.6600 266° West 484 557 43,000  Level Albuquerque Center
01:42PM 34.2900 -112.8211 266° West 483 556 43,000  Level Albuquerque Center
01:43PM 34.2814 -112.9819 266° West 483 556 43,000  Level Albuquerque Center
01:44PM 34.2733 -113.1442 267° West 483 556 43,000  Level Albuquerque Center
01:45PM 34.2653 -113.3064 267° West 484 557 43,000  Level Albuquerque Center
01:46PM 34.2564 -113.4700 266° West 486 559 43,000  Level Albuquerque Center
01:47PM 34.2481 -113.6669 267° West 487 560 43,000  Level Albuquerque Center
01:48PM 34.2378 -113.8289 266° West 486 559 43,000  Level Albuquerque Center
01:49PM 34.2303 -113.9894 267° West 484 557 43,000  Level Albuquerque Center
01:50PM 34.2203 -114.1500 266° West 482 555 43,000  Level Albuquerque Center
01:51PM 34.2094 -114.3150 266° West 484 557 43,000 -360 Level Albuquerque Center
01:52PM 34.2019 -114.4581 266° West 483 556 42,400 -1,140 Descending Los Angeles Center
01:53PM 34.1917 -114.6153 266° West 474 545 40,900 -1,620 Descending Los Angeles Center
01:54PM 34.1797 -114.8047 266° West 473 544 39,100 -1,680 Descending Los Angeles Center
01:55PM 34.1683 -114.9664 265° West 484 557 37,500 -1,500 Descending Los Angeles Center
01:56PM 34.1578 -115.1275 266° West 483 556 36,000 -1,500 Descending Los Angeles Center
01:57PM 34.1469 -115.2908 265° West 489 563 34,500 -1,500 Descending Los Angeles Center
01:58PM 34.1339 -115.4556 265° West 494 568 33,000 -1,620 Descending Los Angeles Center
01:59PM 34.0889 -115.6458 254° West 494 568 31,200 -1,860 Descending Los Angeles Center
02:00PM 34.0467 -115.8019 252° West 492 566 29,200 -1,920 Descending Los Angeles Center
02:01PM 34.0031 -115.9561 251° West 490 564 27,200 -2,100 Descending Los Angeles Center
02:02PM 33.9644 -116.0900 251° West 460 529 24,900 -1,980 Descending Los Angeles Center
02:03PM 33.9308 -116.2100 251° West 402 463 23,200 -1,860 Descending Los Angeles Center
02:04PM 33.8908 -116.3542 252° West 384 442 21,100 -1,860 Descending Los Angeles Center
02:05PM 33.8725 -116.4750 260° West 372 428 19,400 -1,740 Descending Los Angeles Center
02:06PM 33.8769 -116.5969 273° West 366 421 17,600 -1,800 Descending Los Angeles Center
02:07PM 33.8833 -116.7178 274° West 365 420 15,700 -1,800 Descending Los Angeles Center
02:09PM 33.8881 -116.8386 273° West 363 418 14,000 -1,260 Descending Los Angeles Center
02:09PM 33.8833 -116.9333 267° West 350 403 13,700 -1,260 Descending Southern California TRACON
02:11PM 33.8542 -117.0789 256° West 324 373 11,500 -1,500 Descending Los Angeles Center
02:11PM 33.8500 -117.1333 265° West 291 335 10,600 -1,560 Descending Southern California TRACON
02:12PM 33.8333 -117.2333 259° West 279 321 9,000 -1,320 Descending Southern California TRACON
02:13PM 33.8167 -117.3167 256° West 271 312 8,000 -540 Descending Southern California TRACON
02:14PM 33.8167 -117.4000 270° West 216 249 8,000  Level Southern California TRACON
02:15PM 33.8042 -117.4203 233° Southwest 216 249 8,000  Level Los Angeles Center
02:16PM 33.7950 -117.4861 261° West 201 231 8,000 -600 Level Los Angeles Center
02:17PM 33.7836 -117.5658 260° West 202 232 6,800 -720 Descending Los Angeles Center
02:18PM 33.7925 -117.6289 280° West 193 222 6,500 -960 Descending Los Angeles Center
02:19PM 33.7894 -117.6883 266° West 181 208 4,800 -1,380 Descending Los Angeles Center
02:20PM 33.7769 -117.7506 256° West 188 216 3,700 -840 Descending Los Angeles Center
02:21PM 33.7550 -117.8100 246° West 193 222 3,100 -1,200 Descending Los Angeles Center
02:22PM 33.7167 -117.8431 216° Southwest 179 206 1,300 -1,320 Descending Los Angeles Center
02:23PM 33.6831 -117.8636 207° Southwest 153 176 400 -900 Descending Los Angeles Center
02:25PM 33.6757 -117.8682 132° Southeast  Level Estimated